sensor_id;sensor_type;location;lat;lon;timestamp;pressure;altitude;pressure_sealevel;temperature;humidity
3434;BME280;1730;41.932;25.548;2023-02-28T00:00:05;101087.34;;;13.54;100.00
3434;BME280;1730;41.932;25.548;2023-02-28T00:02:41;101195.50;;;13.69;100.00
3434;BME280;1730;41.932;25.548;2023-02-28T00:05:08;101253.03;;;13.72;100.00
3434;BME280;1730;41.932;25.548;2023-02-28T00:07:34;101296.00;;;13.88;100.00
3434;BME280;1730;41.932;25.548;2023-02-28T00:10:00;101269.62;;;13.79;100.00
3434;BME280;1730;41.932;25.548;2023-02-28T00:12:26;101283.28;;;13.99;100.00
3434;BME280;1730;41.932;25.548;2023-02-28T00:14:52;101280.59;;;13.88;100.00
3434;BME280;1730;41.932;25.548;2023-02-28T00:17:19;101264.34;;;13.77;100.00
3434;BME280;1730;41.932;25.548;2023-02-28T00:19:50;101228.66;;;13.93;100.00
3434;BME280;1730;41.932;25.548;2023-02-28T00:22:17;101162.50;;;13.84;100.00
3434;BME280;1730;41.932;25.548;2023-02-28T00:24:43;101151.84;;;13.72;100.00
3434;BME280;1730;41.932;25.548;2023-02-28T00:27:09;101155.63;;;13.80;100.00
3434;BME280;1730;41.932;25.548;2023-02-28T00:29:35;101185.56;;;13.79;100.00
3434;BME280;1730;41.932;25.548;2023-02-28T00:32:01;101175.19;;;13.52;100.00
3434;BME280;1730;41.932;25.548;2023-02-28T00:34:26;101183.41;;;13.19;100.00
3434;BME280;1730;41.932;25.548;2023-02-28T00:36:52;101200.47;;;13.08;100.00
3434;BME280;1730;41.932;25.548;2023-02-28T00:39:17;101227.94;;;13.26;100.00
3434;BME280;1730;41.932;25.548;2023-02-28T00:41:43;101245.31;;;13.45;100.00
3434;BME280;1730;41.932;25.548;2023-02-28T00:44:08;101181.56;;;13.19;100.00
3434;BME280;1730;41.932;25.548;2023-02-28T00:46:34;101235.09;;;13.27;100.00
3434;BME280;1730;41.932;25.548;2023-02-28T00:48:59;101279.19;;;13.40;100.00
3434;BME280;1730;41.932;25.548;2023-02-28T00:51:25;101200.97;;;12.91;100.00
3434;BME280;1730;41.932;25.548;2023-02-28T00:53:50;101252.09;;;13.18;100.00
3434;BME280;1730;41.932;25.548;2023-02-28T00:56:16;101230.41;;;13.06;100.00
3434;BME280;1730;41.932;25.548;2023-02-28T00:58:41;101230.78;;;13.13;100.00
3434;BME280;1730;41.932;25.548;2023-02-28T01:01:08;101203.94;;;13.10;100.00
3434;BME280;1730;41.932;25.548;2023-02-28T01:03:33;101171.34;;;12.89;100.00
3434;BME280;1730;41.932;25.548;2023-02-28T01:05:59;101153.62;;;12.85;100.00
3434;BME280;1730;41.932;25.548;2023-02-28T01:08:25;101069.34;;;12.68;100.00
3434;BME280;1730;41.932;25.548;2023-02-28T01:10:51;100913.25;;;11.92;100.00
3434;BME280;1730;41.932;25.548;2023-02-28T01:13:17;101017.91;;;12.56;100.00
3434;BME280;1730;41.932;25.548;2023-02-28T01:15:51;101017.81;;;12.58;100.00
3434;BME280;1730;41.932;25.548;2023-02-28T01:18:17;100991.41;;;12.28;100.00
3434;BME280;1730;41.932;25.548;2023-02-28T01:20:43;101005.03;;;12.49;100.00
3434;BME280;1730;41.932;25.548;2023-02-28T01:23:09;100975.25;;;12.38;100.00
3434;BME280;1730;41.932;25.548;2023-02-28T01:25:35;100942.28;;;12.55;100.00
3434;BME280;1730;41.932;25.548;2023-02-28T01:28:01;100660.25;;;11.03;100.00
3434;BME280;1730;41.932;25.548;2023-02-28T01:30:27;100853.25;;;12.09;100.00
3434;BME280;1730;41.932;25.548;2023-02-28T01:32:52;100870.47;;;12.08;100.00
3434;BME280;1730;41.932;25.548;2023-02-28T01:35:19;100868.13;;;12.03;100.00
3434;BME280;1730;41.932;25.548;2023-02-28T01:37:44;100874.56;;;11.80;100.00
3434;BME280;1730;41.932;25.548;2023-02-28T01:40:10;100898.75;;;11.93;100.00
3434;BME280;1730;41.932;25.548;2023-02-28T01:42:36;100800.13;;;11.32;100.00
3434;BME280;1730;41.932;25.548;2023-02-28T01:47:47;100892.94;;;11.64;100.00
3434;BME280;1730;41.932;25.548;2023-02-28T01:50:17;100867.28;;;11.81;100.00
3434;BME280;1730;41.932;25.548;2023-02-28T01:52:45;100839.44;;;11.80;100.00
3434;BME280;1730;41.932;25.548;2023-02-28T01:55:12;100715.94;;;10.93;100.00
3434;BME280;1730;41.932;25.548;2023-02-28T01:57:43;100822.34;;;11.57;100.00
3434;BME280;1730;41.932;25.548;2023-02-28T02:00:13;100675.72;;;10.79;100.00
3434;BME280;1730;41.932;25.548;2023-02-28T02:02:45;100795.47;;;11.45;100.00
3434;BME280;1730;41.932;25.548;2023-02-28T02:05:23;100771.16;;;11.00;100.00
3434;BME280;1730;41.932;25.548;2023-02-28T02:07:52;100811.03;;;11.19;100.00
3434;BME280;1730;41.932;25.548;2023-02-28T02:10:43;100795.34;;;11.35;100.00
3434;BME280;1730;41.932;25.548;2023-02-28T02:13:40;100752.25;;;11.34;100.00
3434;BME280;1730;41.932;25.548;2023-02-28T02:27:43;100688.94;;;10.82;100.00
3434;BME280;1730;41.932;25.548;2023-02-28T02:36:30;100552.37;;;10.36;100.00
3434;BME280;1730;41.932;25.548;2023-02-28T02:39:13;100597.28;;;11.14;100.00
3434;BME280;1730;41.932;25.548;2023-02-28T02:41:46;100394.41;;;10.34;100.00
3434;BME280;1730;41.932;25.548;2023-02-28T02:46:48;100475.25;;;11.31;100.00
3434;BME280;1730;41.932;25.548;2023-02-28T02:49:28;100434.66;;;11.42;100.00
3434;BME280;1730;41.932;25.548;2023-02-28T02:51:57;100396.13;;;11.19;100.00
3434;BME280;1730;41.932;25.548;2023-02-28T02:54:31;100317.12;;;10.55;100.00
3434;BME280;1730;41.932;25.548;2023-02-28T02:57:03;100378.09;;;10.99;100.00
3434;BME280;1730;41.932;25.548;2023-02-28T02:59:31;100364.25;;;11.34;100.00
3434;BME280;1730;41.932;25.548;2023-02-28T03:02:01;100330.78;;;11.46;100.00
3434;BME280;1730;41.932;25.548;2023-02-28T03:04:32;100298.88;;;11.30;100.00
3434;BME280;1730;41.932;25.548;2023-02-28T03:06:59;99980.38;;;9.29;100.00
3434;BME280;1730;41.932;25.548;2023-02-28T03:09:26;100276.12;;;11.33;100.00
3434;BME280;1730;41.932;25.548;2023-02-28T03:11:54;100283.19;;;10.94;100.00
3434;BME280;1730;41.932;25.548;2023-02-28T03:33:05;100205.56;;;10.77;100.00
3434;BME280;1730;41.932;25.548;2023-02-28T03:35:39;100183.16;;;10.56;100.00
3434;BME280;1730;41.932;25.548;2023-02-28T03:38:16;100182.66;;;10.71;100.00
3434;BME280;1730;41.932;25.548;2023-02-28T03:40:48;100203.37;;;10.71;100.00
3434;BME280;1730;41.932;25.548;2023-02-28T03:43:22;100195.84;;;10.95;100.00
3434;BME280;1730;41.932;25.548;2023-02-28T03:45:50;100173.19;;;11.07;100.00
3434;BME280;1730;41.932;25.548;2023-02-28T03:48:22;100153.78;;;11.23;100.00
3434;BME280;1730;41.932;25.548;2023-02-28T03:50:53;100135.28;;;11.18;100.00
3434;BME280;1730;41.932;25.548;2023-02-28T03:53:28;100071.81;;;10.74;100.00
3434;BME280;1730;41.932;25.548;2023-02-28T03:55:59;100121.53;;;11.31;100.00
3434;BME280;1730;41.932;25.548;2023-02-28T03:58:35;100100.81;;;10.82;100.00
3434;BME280;1730;41.932;25.548;2023-02-28T04:01:10;100102.75;;;10.70;100.00
3434;BME280;1730;41.932;25.548;2023-02-28T04:03:38;100125.47;;;11.17;100.00
3434;BME280;1730;41.932;25.548;2023-02-28T04:06:07;100113.94;;;10.66;100.00
3434;BME280;1730;41.932;25.548;2023-02-28T04:08:35;100154.53;;;10.64;100.00
3434;BME280;1730;41.932;25.548;2023-02-28T04:11:08;100150.28;;;10.71;100.00
3434;BME280;1730;41.932;25.548;2023-02-28T04:13:40;100168.19;;;10.72;100.00
3434;BME280;1730;41.932;25.548;2023-02-28T04:16:09;100157.62;;;10.90;100.00
3434;BME280;1730;41.932;25.548;2023-02-28T04:18:41;100165.66;;;10.80;100.00
3434;BME280;1730;41.932;25.548;2023-02-28T04:21:09;100165.50;;;10.72;100.00
3434;BME280;1730;41.932;25.548;2023-02-28T04:23:35;100176.22;;;10.63;100.00
3434;BME280;1730;41.932;25.548;2023-02-28T04:26:01;100152.50;;;10.57;100.00
3434;BME280;1730;41.932;25.548;2023-02-28T04:28:26;100182.13;;;10.77;100.00
3434;BME280;1730;41.932;25.548;2023-02-28T04:30:56;100094.28;;;10.03;100.00
3434;BME280;1730;41.932;25.548;2023-02-28T04:33:22;100105.94;;;9.72;100.00
3434;BME280;1730;41.932;25.548;2023-02-28T04:35:48;100194.62;;;10.48;100.00
3434;BME280;1730;41.932;25.548;2023-02-28T04:38:13;100211.84;;;10.57;100.00
3434;BME280;1730;41.932;25.548;2023-02-28T04:40:39;100212.44;;;10.39;100.00
3434;BME280;1730;41.932;25.548;2023-02-28T04:43:04;100133.56;;;10.06;100.00
3434;BME280;1730;41.932;25.548;2023-02-28T04:45:30;100215.00;;;10.62;100.00
3434;BME280;1730;41.932;25.548;2023-02-28T04:47:57;100228.03;;;10.57;100.00
3434;BME280;1730;41.932;25.548;2023-02-28T04:50:23;100223.53;;;10.46;100.00
3434;BME280;1730;41.932;25.548;2023-02-28T04:52:49;100235.97;;;10.37;100.00
3434;BME280;1730;41.932;25.548;2023-02-28T04:55:15;100234.81;;;10.40;100.00
3434;BME280;1730;41.932;25.548;2023-02-28T04:57:40;100261.28;;;10.25;100.00
3434;BME280;1730;41.932;25.548;2023-02-28T05:00:09;100259.38;;;10.58;100.00
3434;BME280;1730;41.932;25.548;2023-02-28T05:02:37;100255.38;;;10.73;100.00
3434;BME280;1730;41.932;25.548;2023-02-28T05:05:04;100235.12;;;11.09;100.00
3434;BME280;1730;41.932;25.548;2023-02-28T05:07:29;100201.16;;;11.06;100.00
3434;BME280;1730;41.932;25.548;2023-02-28T05:09:55;100191.22;;;11.07;100.00
3434;BME280;1730;41.932;25.548;2023-02-28T05:12:20;100078.38;;;10.21;100.00
3434;BME280;1730;41.932;25.548;2023-02-28T05:14:46;100199.41;;;10.96;100.00
3434;BME280;1730;41.932;25.548;2023-02-28T05:17:11;100197.06;;;10.81;100.00
3434;BME280;1730;41.932;25.548;2023-02-28T05:19:36;100105.81;;;10.15;100.00
3434;BME280;1730;41.932;25.548;2023-02-28T05:22:02;100238.81;;;10.57;100.00
3434;BME280;1730;41.932;25.548;2023-02-28T05:24:27;100252.94;;;10.70;100.00
3434;BME280;1730;41.932;25.548;2023-02-28T05:26:53;100255.19;;;10.44;100.00
3434;BME280;1730;41.932;25.548;2023-02-28T05:29:20;100288.37;;;10.45;100.00
3434;BME280;1730;41.932;25.548;2023-02-28T05:31:46;100290.50;;;10.62;100.00
3434;BME280;1730;41.932;25.548;2023-02-28T05:34:11;100290.50;;;10.82;100.00
3434;BME280;1730;41.932;25.548;2023-02-28T05:36:38;100287.75;;;10.52;100.00
3434;BME280;1730;41.932;25.548;2023-02-28T05:39:07;100312.13;;;10.19;100.00
3434;BME280;1730;41.932;25.548;2023-02-28T05:41:39;100354.31;;;10.40;100.00
3434;BME280;1730;41.932;25.548;2023-02-28T05:44:04;100355.28;;;10.51;100.00
3434;BME280;1730;41.932;25.548;2023-02-28T05:46:30;100342.53;;;10.73;100.00
3434;BME280;1730;41.932;25.548;2023-02-28T05:48:55;100331.41;;;10.67;100.00
3434;BME280;1730;41.932;25.548;2023-02-28T05:51:23;100273.25;;;10.53;100.00
3434;BME280;1730;41.932;25.548;2023-02-28T05:53:48;100332.06;;;10.27;100.00
3434;BME280;1730;41.932;25.548;2023-02-28T05:56:14;100361.53;;;10.51;100.00
3434;BME280;1730;41.932;25.548;2023-02-28T05:58:40;100368.50;;;10.54;100.00
3434;BME280;1730;41.932;25.548;2023-02-28T06:03:58;100395.88;;;10.38;100.00
3434;BME280;1730;41.932;25.548;2023-02-28T06:06:24;100361.78;;;10.48;100.00
3434;BME280;1730;41.932;25.548;2023-02-28T06:08:50;100296.97;;;10.18;100.00
3434;BME280;1730;41.932;25.548;2023-02-28T06:11:15;100203.97;;;9.37;100.00
3434;BME280;1730;41.932;25.548;2023-02-28T06:13:41;100209.44;;;9.36;100.00
3434;BME280;1730;41.932;25.548;2023-02-28T06:16:09;100294.41;;;9.83;100.00
3434;BME280;1730;41.932;25.548;2023-02-28T06:18:35;100412.38;;;10.56;100.00
3434;BME280;1730;41.932;25.548;2023-02-28T06:21:01;100419.87;;;10.41;100.00
3434;BME280;1730;41.932;25.548;2023-02-28T06:23:26;100445.50;;;10.47;100.00
3434;BME280;1730;41.932;25.548;2023-02-28T06:25:52;100262.41;;;9.13;100.00
3434;BME280;1730;41.932;25.548;2023-02-28T06:28:18;100574.72;;;11.47;100.00
3434;BME280;1730;41.932;25.548;2023-02-28T06:30:44;100503.41;;;11.17;100.00
3434;BME280;1730;41.932;25.548;2023-02-28T06:33:09;100482.22;;;11.34;100.00
3434;BME280;1730;41.932;25.548;2023-02-28T06:35:35;100265.50;;;11.01;100.00
3434;BME280;1730;41.932;25.548;2023-02-28T06:38:00;100375.97;;;12.05;100.00
3434;BME280;1730;41.932;25.548;2023-02-28T06:40:26;100294.63;;;12.75;100.00
3434;BME280;1730;41.932;25.548;2023-02-28T06:42:51;100315.88;;;13.36;100.00
3434;BME280;1730;41.932;25.548;2023-02-28T06:45:17;100246.06;;;13.57;100.00
3434;BME280;1730;41.932;25.548;2023-02-28T06:47:43;100201.75;;;13.93;100.00
3434;BME280;1730;41.932;25.548;2023-02-28T06:50:11;100157.25;;;14.22;100.00
3434;BME280;1730;41.932;25.548;2023-02-28T06:52:37;100142.75;;;12.32;100.00
3434;BME280;1730;41.932;25.548;2023-02-28T06:55:05;100228.25;;;10.95;100.00
3434;BME280;1730;41.932;25.548;2023-02-28T06:57:31;100268.44;;;12.56;100.00
3434;BME280;1730;41.932;25.548;2023-02-28T07:00:07;100123.66;;;12.43;100.00
3434;BME280;1730;41.932;25.548;2023-02-28T07:02:35;100201.94;;;11.77;100.00
3434;BME280;1730;41.932;25.548;2023-02-28T07:05:01;100215.91;;;11.92;100.00
3434;BME280;1730;41.932;25.548;2023-02-28T07:07:27;100259.44;;;11.58;100.00
3434;BME280;1730;41.932;25.548;2023-02-28T07:09:52;100313.91;;;11.03;100.00
3434;BME280;1730;41.932;25.548;2023-02-28T07:12:18;100354.47;;;11.12;100.00
3434;BME280;1730;41.932;25.548;2023-02-28T07:14:43;100389.78;;;10.89;100.00
3434;BME280;1730;41.932;25.548;2023-02-28T07:17:10;100414.06;;;10.89;100.00
3434;BME280;1730;41.932;25.548;2023-02-28T07:19:38;100409.41;;;10.70;100.00
3434;BME280;1730;41.932;25.548;2023-02-28T07:22:04;100492.09;;;10.26;100.00
3434;BME280;1730;41.932;25.548;2023-02-28T07:24:30;100549.44;;;10.62;100.00
3434;BME280;1730;41.932;25.548;2023-02-28T07:26:56;100545.84;;;10.72;100.00
3434;BME280;1730;41.932;25.548;2023-02-28T07:29:21;100544.22;;;10.92;100.00
3434;BME280;1730;41.932;25.548;2023-02-28T07:31:47;100495.63;;;10.05;100.00
3434;BME280;1730;41.932;25.548;2023-02-28T07:34:13;100596.66;;;9.99;100.00
3434;BME280;1730;41.932;25.548;2023-02-28T07:36:39;100684.09;;;10.30;100.00
3434;BME280;1730;41.932;25.548;2023-02-28T07:39:05;100714.75;;;10.40;100.00
3434;BME280;1730;41.932;25.548;2023-02-28T07:41:30;100634.31;;;9.77;100.00
3434;BME280;1730;41.932;25.548;2023-02-28T07:43:58;100742.66;;;10.28;100.00
3434;BME280;1730;41.932;25.548;2023-02-28T07:46:25;100771.09;;;10.32;100.00
3434;BME280;1730;41.932;25.548;2023-02-28T07:48:51;100805.97;;;10.22;100.00
3434;BME280;1730;41.932;25.548;2023-02-28T07:51:18;100853.28;;;10.74;100.00
3434;BME280;1730;41.932;25.548;2023-02-28T07:53:44;100799.87;;;10.55;100.00
3434;BME280;1730;41.932;25.548;2023-02-28T07:56:09;100799.00;;;10.55;100.00
3434;BME280;1730;41.932;25.548;2023-02-28T07:58:36;100732.72;;;10.17;100.00
3434;BME280;1730;41.932;25.548;2023-02-28T08:01:06;100766.66;;;10.55;100.00
3434;BME280;1730;41.932;25.548;2023-02-28T08:03:32;100743.94;;;10.46;100.00
3434;BME280;1730;41.932;25.548;2023-02-28T08:05:57;100784.03;;;10.51;100.00
3434;BME280;1730;41.932;25.548;2023-02-28T08:08:23;100793.97;;;10.50;100.00
3434;BME280;1730;41.932;25.548;2023-02-28T08:10:54;100413.25;;;7.67;100.00
3434;BME280;1730;41.932;25.548;2023-02-28T08:13:22;100856.56;;;10.19;100.00
3434;BME280;1730;41.932;25.548;2023-02-28T08:15:48;100891.75;;;10.41;100.00
3434;BME280;1730;41.932;25.548;2023-02-28T08:18:13;100735.91;;;9.75;100.00
3434;BME280;1730;41.932;25.548;2023-02-28T08:20:38;100861.53;;;10.95;100.00
3434;BME280;1730;41.932;25.548;2023-02-28T08:23:04;100809.34;;;10.72;100.00
3434;BME280;1730;41.932;25.548;2023-02-28T08:25:29;100783.44;;;10.47;100.00
3434;BME280;1730;41.932;25.548;2023-02-28T08:27:55;100818.97;;;10.87;100.00
3434;BME280;1730;41.932;25.548;2023-02-28T08:30:20;100790.56;;;10.59;100.00
3434;BME280;1730;41.932;25.548;2023-02-28T08:32:46;100817.19;;;10.64;100.00
3434;BME280;1730;41.932;25.548;2023-02-28T08:35:11;100831.09;;;10.93;100.00
3434;BME280;1730;41.932;25.548;2023-02-28T08:37:37;100773.66;;;10.68;100.00
3434;BME280;1730;41.932;25.548;2023-02-28T08:40:03;100783.75;;;10.89;100.00
3434;BME280;1730;41.932;25.548;2023-02-28T08:42:29;100792.97;;;10.86;100.00
3434;BME280;1730;41.932;25.548;2023-02-28T08:44:54;100804.66;;;10.52;100.00
3434;BME280;1730;41.932;25.548;2023-02-28T08:47:20;100859.16;;;10.20;100.00
3434;BME280;1730;41.932;25.548;2023-02-28T08:49:45;100943.59;;;10.08;100.00
3434;BME280;1730;41.932;25.548;2023-02-28T08:52:11;101013.22;;;10.27;100.00
3434;BME280;1730;41.932;25.548;2023-02-28T08:54:37;101103.12;;;10.64;100.00
3434;BME280;1730;41.932;25.548;2023-02-28T08:57:03;101116.53;;;10.53;100.00
3434;BME280;1730;41.932;25.548;2023-02-28T08:59:29;101160.31;;;10.56;100.00
3434;BME280;1730;41.932;25.548;2023-02-28T09:01:55;101182.66;;;10.33;100.00
3434;BME280;1730;41.932;25.548;2023-02-28T09:04:21;101281.81;;;10.55;100.00
3434;BME280;1730;41.932;25.548;2023-02-28T09:06:47;101304.28;;;10.28;100.00
3434;BME280;1730;41.932;25.548;2023-02-28T09:09:14;101366.03;;;10.46;100.00
3434;BME280;1730;41.932;25.548;2023-02-28T09:11:41;101170.50;;;9.08;100.00
3434;BME280;1730;41.932;25.548;2023-02-28T09:14:07;101491.63;;;11.03;100.00
3434;BME280;1730;41.932;25.548;2023-02-28T09:16:33;101438.59;;;10.63;100.00
3434;BME280;1730;41.932;25.548;2023-02-28T09:18:58;101432.19;;;10.51;100.00
3434;BME280;1730;41.932;25.548;2023-02-28T09:21:26;101429.28;;;10.54;100.00
3434;BME280;1730;41.932;25.548;2023-02-28T09:23:52;101438.44;;;10.78;100.00
3434;BME280;1730;41.932;25.548;2023-02-28T09:26:21;101461.03;;;10.90;100.00
3434;BME280;1730;41.932;25.548;2023-02-28T09:28:47;101434.22;;;11.14;100.00
3434;BME280;1730;41.932;25.548;2023-02-28T09:31:18;101366.59;;;11.15;100.00
3434;BME280;1730;41.932;25.548;2023-02-28T09:33:47;101349.31;;;11.18;100.00
3434;BME280;1730;41.932;25.548;2023-02-28T09:36:14;101365.28;;;10.83;100.00
3434;BME280;1730;41.932;25.548;2023-02-28T09:38:40;101382.03;;;11.13;100.00
3434;BME280;1730;41.932;25.548;2023-02-28T09:41:19;101160.56;;;9.88;100.00
3434;BME280;1730;41.932;25.548;2023-02-28T09:43:56;101040.47;;;9.59;100.00
3434;BME280;1730;41.932;25.548;2023-02-28T09:49:04;101139.97;;;10.89;100.00
3434;BME280;1730;41.932;25.548;2023-02-28T09:54:02;101241.38;;;12.02;100.00
3434;BME280;1730;41.932;25.548;2023-02-28T10:08:00;101054.97;;;11.42;100.00
3434;BME280;1730;41.932;25.548;2023-02-28T10:10:03;100871.13;;;10.40;100.00
3434;BME280;1730;41.932;25.548;2023-02-28T10:12:31;101061.41;;;11.87;100.00
3434;BME280;1730;41.932;25.548;2023-02-28T10:15:17;101000.44;;;11.71;100.00
3434;BME280;1730;41.932;25.548;2023-02-28T10:17:53;101003.50;;;11.67;100.00
3434;BME280;1730;41.932;25.548;2023-02-28T10:20:21;100960.56;;;11.97;100.00
3434;BME280;1730;41.932;25.548;2023-02-28T10:25:35;100874.63;;;12.12;100.00
3434;BME280;1730;41.932;25.548;2023-02-28T10:28:10;100838.00;;;12.19;100.00
3434;BME280;1730;41.932;25.548;2023-02-28T10:30:42;100688.59;;;11.63;100.00
3434;BME280;1730;41.932;25.548;2023-02-28T10:33:35;100739.69;;;11.66;100.00
3434;BME280;1730;41.932;25.548;2023-02-28T10:36:03;100706.91;;;11.59;100.00
3434;BME280;1730;41.932;25.548;2023-02-28T10:38:33;100745.81;;;11.79;100.00
3434;BME280;1730;41.932;25.548;2023-02-28T10:43:33;100725.97;;;12.33;100.00
3434;BME280;1730;41.932;25.548;2023-02-28T10:48:57;100662.12;;;12.81;100.00
3434;BME280;1730;41.932;25.548;2023-02-28T10:51:25;100582.00;;;12.59;100.00
3434;BME280;1730;41.932;25.548;2023-02-28T10:53:52;100581.94;;;12.40;100.00
3434;BME280;1730;41.932;25.548;2023-02-28T10:56:20;100554.63;;;11.92;100.00
3434;BME280;1730;41.932;25.548;2023-02-28T10:59:49;100597.34;;;12.19;100.00
3434;BME280;1730;41.932;25.548;2023-02-28T11:01:49;100564.25;;;12.15;100.00
3434;BME280;1730;41.932;25.548;2023-02-28T11:07:00;100586.13;;;12.24;100.00
3434;BME280;1730;41.932;25.548;2023-02-28T11:09:33;100074.66;;;9.28;100.00
3434;BME280;1730;41.932;25.548;2023-02-28T11:12:04;100483.53;;;12.01;100.00
3434;BME280;1730;41.932;25.548;2023-02-28T11:14:47;100405.19;;;11.60;100.00
3434;BME280;1730;41.932;25.548;2023-02-28T11:17:26;100461.97;;;11.90;100.00
3434;BME280;1730;41.932;25.548;2023-02-28T11:19:55;100495.91;;;12.34;100.00
3434;BME280;1730;41.932;25.548;2023-02-28T11:22:24;100487.41;;;12.48;100.00
3434;BME280;1730;41.932;25.548;2023-02-28T11:24:56;100477.66;;;12.76;100.00
3434;BME280;1730;41.932;25.548;2023-02-28T11:29:59;100463.56;;;12.23;100.00
3434;BME280;1730;41.932;25.548;2023-02-28T11:32:26;100351.47;;;11.87;100.00
3434;BME280;1730;41.932;25.548;2023-02-28T11:35:14;100431.31;;;12.01;100.00
3434;BME280;1730;41.932;25.548;2023-02-28T11:37:42;100452.38;;;12.37;100.00
3434;BME280;1730;41.932;25.548;2023-02-28T11:40:30;100452.28;;;12.18;100.00
3434;BME280;1730;41.932;25.548;2023-02-28T11:43:20;100447.25;;;12.04;100.00
3434;BME280;1730;41.932;25.548;2023-02-28T11:51:48;100219.50;;;10.40;100.00
3434;BME280;1730;41.932;25.548;2023-02-28T12:00:32;100626.56;;;11.72;100.00
3434;BME280;1730;41.932;25.548;2023-02-28T12:05:46;100739.94;;;11.74;100.00
3434;BME280;1730;41.932;25.548;2023-02-28T12:16:33;100958.34;;;11.23;100.00
3434;BME280;1730;41.932;25.548;2023-02-28T12:21:43;101099.53;;;11.36;100.00
3434;BME280;1730;41.932;25.548;2023-02-28T12:24:26;101152.91;;;11.32;100.00
3434;BME280;1730;41.932;25.548;2023-02-28T12:26:57;101223.56;;;11.63;100.00
3434;BME280;1730;41.932;25.548;2023-02-28T12:29:28;101234.78;;;11.69;100.00
3434;BME280;1730;41.932;25.548;2023-02-28T12:32:09;101225.16;;;11.78;100.00
3434;BME280;1730;41.932;25.548;2023-02-28T12:34:41;101137.19;;;11.26;100.00
3434;BME280;1730;41.932;25.548;2023-02-28T12:37:25;101103.19;;;10.88;100.00
3434;BME280;1730;41.932;25.548;2023-02-28T12:40:03;101247.41;;;11.82;100.00
3434;BME280;1730;41.932;25.548;2023-02-28T12:42:39;101241.28;;;11.67;100.00
3434;BME280;1730;41.932;25.548;2023-02-28T12:45:21;101285.53;;;11.90;100.00
3434;BME280;1730;41.932;25.548;2023-02-28T12:47:57;101287.91;;;11.58;100.00
3434;BME280;1730;41.932;25.548;2023-02-28T12:50:26;101321.94;;;11.60;100.00
3434;BME280;1730;41.932;25.548;2023-02-28T12:53:30;101300.34;;;11.48;100.00
3434;BME280;1730;41.932;25.548;2023-02-28T12:59:25;101364.06;;;11.63;100.00
3434;BME280;1730;41.932;25.548;2023-02-28T13:07:56;101367.66;;;11.38;100.00
3434;BME280;1730;41.932;25.548;2023-02-28T13:10:39;101425.16;;;11.40;100.00
3434;BME280;1730;41.932;25.548;2023-02-28T13:13:05;101441.62;;;11.10;100.00
3434;BME280;1730;41.932;25.548;2023-02-28T13:15:31;101513.22;;;11.55;100.00
3434;BME280;1730;41.932;25.548;2023-02-28T13:18:00;101490.84;;;11.41;100.00
3434;BME280;1730;41.932;25.548;2023-02-28T13:20:33;101540.47;;;11.52;100.00
3434;BME280;1730;41.932;25.548;2023-02-28T13:22:59;101597.38;;;11.76;100.00
3434;BME280;1730;41.932;25.548;2023-02-28T13:28:56;101502.25;;;11.19;100.00
3434;BME280;1730;41.932;25.548;2023-02-28T13:31:05;101549.47;;;11.26;100.00
3434;BME280;1730;41.932;25.548;2023-02-28T13:34:05;101598.72;;;11.56;100.00
3434;BME280;1730;41.932;25.548;2023-02-28T13:36:31;101611.91;;;11.61;100.00
3434;BME280;1730;41.932;25.548;2023-02-28T13:38:59;101571.44;;;11.07;100.00
3434;BME280;1730;41.932;25.548;2023-02-28T13:44:06;101834.59;;;10.88;100.00
3434;BME280;1730;41.932;25.548;2023-02-28T13:46:36;101862.53;;;10.87;100.00
3434;BME280;1730;41.932;25.548;2023-02-28T13:49:29;101918.09;;;11.05;100.00
3434;BME280;1730;41.932;25.548;2023-02-28T13:55:03;101992.44;;;10.96;100.00
3434;BME280;1730;41.932;25.548;2023-02-28T13:58:07;102020.84;;;11.17;100.00
3434;BME280;1730;41.932;25.548;2023-02-28T14:06:29;101961.47;;;9.93;100.00
3434;BME280;1730;41.932;25.548;2023-02-28T14:11:52;102155.78;;;10.88;100.00
3434;BME280;1730;41.932;25.548;2023-02-28T14:17:22;102224.25;;;11.34;100.00
3434;BME280;1730;41.932;25.548;2023-02-28T14:20:05;102116.66;;;11.26;100.00
3434;BME280;1730;41.932;25.548;2023-02-28T14:26:23;102112.56;;;11.19;100.00
3434;BME280;1730;41.932;25.548;2023-02-28T14:32:17;102111.72;;;11.18;100.00
3434;BME280;1730;41.932;25.548;2023-02-28T14:37:51;102165.44;;;11.07;100.00
3434;BME280;1730;41.932;25.548;2023-02-28T14:40:33;102186.78;;;10.80;100.00
3434;BME280;1730;41.932;25.548;2023-02-28T14:43:05;102190.00;;;11.03;100.00
3434;BME280;1730;41.932;25.548;2023-02-28T14:45:40;102197.25;;;10.87;100.00
3434;BME280;1730;41.932;25.548;2023-02-28T14:48:22;102258.44;;;10.86;100.00
3434;BME280;1730;41.932;25.548;2023-02-28T14:53:36;102308.63;;;11.06;100.00
3434;BME280;1730;41.932;25.548;2023-02-28T14:56:24;102326.69;;;11.05;100.00
3434;BME280;1730;41.932;25.548;2023-02-28T14:58:55;102156.22;;;9.97;100.00
3434;BME280;1730;41.932;25.548;2023-02-28T15:01:30;102348.34;;;10.88;100.00
3434;BME280;1730;41.932;25.548;2023-02-28T15:04:05;102365.63;;;10.84;100.00
3434;BME280;1730;41.932;25.548;2023-02-28T15:06:34;102383.28;;;10.74;100.00
3434;BME280;1730;41.932;25.548;2023-02-28T15:09:18;102381.59;;;10.71;100.00
3434;BME280;1730;41.932;25.548;2023-02-28T15:11:47;102418.88;;;10.98;100.00
3434;BME280;1730;41.932;25.548;2023-02-28T15:17:34;102390.16;;;10.79;100.00
3434;BME280;1730;41.932;25.548;2023-02-28T15:23:23;102407.56;;;11.24;100.00
3434;BME280;1730;41.932;25.548;2023-02-28T15:35:36;102359.34;;;10.32;100.00
3434;BME280;1730;41.932;25.548;2023-02-28T15:40:51;102428.91;;;10.61;100.00
3434;BME280;1730;41.932;25.548;2023-02-28T15:43:33;102441.41;;;10.45;100.00